Time;durP1;ratioP1;P1;durP2;ratioP2;P2;SDS_P1;SDS_P2;PMS_P1;PMS_P2;Temp;Humidity;BMP_temperature;BMP_pressure;BME280_temperature;BME280_humidity;BME280_pressure;Samples;Min_cycle;Max_cycle;Signal;HPM_P1;HPM_P2
2023/08/04 00:00:37;;;;;;;11.15;4.25;;;16.20;99.90;;;;;;5003342;28;20561;-83
2023/08/04 00:03:05;;;;;;;10.23;4.15;;;16.30;99.90;;;;;;4996818;28;20219;-82
2023/08/04 00:05:32;;;;;;;6.50;4.40;;;16.40;99.90;;;;;;4995121;28;20195;-83
2023/08/04 00:08:01;;;;;;;7.90;4.15;;;16.30;99.90;;;;;;4996481;28;20224;-82
2023/08/04 00:10:29;;;;;;;9.60;4.18;;;16.20;99.90;;;;;;4999462;28;20195;-83
2023/08/04 00:12:56;;;;;;;9.07;4.85;;;16.20;99.90;;;;;;5001069;28;20203;-83
2023/08/04 00:15:24;;;;;;;8.15;4.78;;;16.20;99.90;;;;;;5001885;28;20198;-82
2023/08/04 00:17:51;;;;;;;8.93;4.63;;;16.10;99.90;;;;;;5011235;28;20580;-82
2023/08/04 00:20:18;;;;;;;10.13;5.43;;;16.20;99.90;;;;;;5012430;28;20203;-82
2023/08/04 00:22:46;;;;;;;8.05;4.85;;;16.10;99.90;;;;;;5001023;28;20569;-82
2023/08/04 00:25:15;;;;;;;9.43;4.72;;;16.10;99.90;;;;;;5000285;28;20200;-82
2023/08/04 00:27:42;;;;;;;10.32;5.50;;;16.20;99.90;;;;;;4996288;28;20223;-82
2023/08/04 00:30:11;;;;;;;9.98;5.43;;;16.10;99.90;;;;;;5023682;28;20202;-82
2023/08/04 00:32:38;;;;;;;11.48;6.18;;;16.10;99.90;;;;;;4999949;28;20207;-82
2023/08/04 00:35:06;;;;;;;9.73;5.47;;;16.20;99.90;;;;;;5019582;28;20199;-82
2023/08/04 00:37:34;;;;;;;9.75;5.72;;;16.10;99.90;;;;;;5036411;28;20576;-82
2023/08/04 00:40:02;;;;;;;8.60;5.65;;;16.10;99.90;;;;;;5003565;28;20191;-82
2023/08/04 00:42:31;;;;;;;11.73;7.00;;;16.10;99.90;;;;;;5012792;28;20535;-83
2023/08/04 00:44:59;;;;;;;8.57;5.72;;;16.10;99.90;;;;;;4993319;28;20204;-83
2023/08/04 00:47:26;;;;;;;12.20;6.40;;;16.10;99.90;;;;;;5012315;28;20228;-82
2023/08/04 00:49:54;;;;;;;12.25;7.30;;;16.10;99.90;;;;;;4999274;28;20207;-81
2023/08/04 00:52:22;;;;;;;11.07;7.05;;;16.10;99.90;;;;;;5016079;28;20192;-82
2023/08/04 00:54:49;;;;;;;10.57;7.10;;;16.10;99.90;;;;;;5000416;28;20210;-82
2023/08/04 00:57:17;;;;;;;10.93;6.07;;;16.10;99.90;;;;;;5005794;28;20216;-83
2023/08/04 00:59:46;;;;;;;9.85;5.70;;;16.10;99.90;;;;;;4997184;28;20200;-82
2023/08/04 01:02:14;;;;;;;10.00;6.80;;;16.20;99.90;;;;;;5012651;28;20196;-83
2023/08/04 01:04:41;;;;;;;12.50;6.45;;;16.20;99.90;;;;;;4998313;28;20236;-83
2023/08/04 01:07:20;;;;;;;7.57;5.72;;;16.30;99.90;;;;;;5013252;28;20689;-82
2023/08/04 01:09:54;;;;;;;11.27;5.78;;;16.40;99.90;;;;;;5003371;28;20215;-82
2023/08/04 01:12:27;;;;;;;10.68;5.38;;;16.30;99.90;;;;;;4996297;28;20565;-82
2023/08/04 01:14:57;;;;;;;9.48;5.90;;;16.40;99.90;;;;;;5028459;28;20202;-83
2023/08/04 01:17:27;;;;;;;11.75;5.82;;;16.30;99.90;;;;;;5014899;28;20207;-82
2023/08/04 01:19:54;;;;;;;10.77;5.90;;;16.30;99.90;;;;;;4995888;28;20215;-82
2023/08/04 01:22:24;;;;;;;10.43;5.65;;;16.30;99.90;;;;;;4996633;28;20210;-82
2023/08/04 01:24:53;;;;;;;10.05;5.50;;;16.30;99.90;;;;;;5000300;28;20207;-81
2023/08/04 01:27:28;;;;;;;11.05;5.93;;;16.40;99.90;;;;;;4994753;28;20219;-83
2023/08/04 01:29:58;;;;;;;13.45;5.57;;;16.30;99.90;;;;;;4996226;28;20199;-82
2023/08/04 01:32:26;;;;;;;10.45;5.43;;;16.30;99.90;;;;;;5009038;28;20657;-82
2023/08/04 01:34:53;;;;;;;11.95;6.22;;;16.30;99.90;;;;;;4999100;28;20291;-82
2023/08/04 01:37:22;;;;;;;11.18;5.80;;;16.20;99.90;;;;;;4995785;28;20223;-83
2023/08/04 01:39:50;;;;;;;11.35;5.20;;;16.20;99.90;;;;;;5004438;28;20199;-83
2023/08/04 01:42:19;;;;;;;13.30;6.07;;;16.20;99.90;;;;;;4996531;28;20195;-83
2023/08/04 01:44:46;;;;;;;10.48;5.45;;;16.10;99.90;;;;;;5028738;28;20557;-82
2023/08/04 01:47:14;;;;;;;9.90;6.25;;;16.20;99.90;;;;;;5002116;28;20226;-83
2023/08/04 01:49:41;;;;;;;11.32;5.53;;;16.20;99.90;;;;;;4993832;28;20204;-83
2023/08/04 01:52:09;;;;;;;9.30;4.93;;;16.20;99.90;;;;;;5011495;28;20204;-82
2023/08/04 01:54:38;;;;;;;11.35;5.70;;;16.20;99.90;;;;;;4994262;28;20192;-82
2023/08/04 01:57:05;;;;;;;7.85;5.03;;;16.20;99.90;;;;;;4996062;28;20226;-83
2023/08/04 01:59:33;;;;;;;9.63;5.70;;;16.20;99.90;;;;;;4990026;28;20215;-82
2023/08/04 02:02:01;;;;;;;12.15;5.57;;;16.10;99.90;;;;;;5028339;28;20204;-83
2023/08/04 02:04:28;;;;;;;11.60;5.50;;;16.20;99.90;;;;;;4995967;28;20207;-82
2023/08/04 02:06:55;;;;;;;12.63;6.13;;;16.10;99.90;;;;;;4994107;28;20219;-82
2023/08/04 02:09:27;;;;;;;11.20;5.50;;;16.10;99.90;;;;;;4995900;28;20203;-83
2023/08/04 02:11:56;;;;;;;8.63;5.18;;;16.20;99.90;;;;;;4994673;28;20207;-83
2023/08/04 02:14:24;;;;;;;10.32;5.80;;;16.20;99.90;;;;;;5009895;28;20196;-83
2023/08/04 02:16:51;;;;;;;8.70;5.75;;;16.20;99.90;;;;;;5005190;28;20212;-82
2023/08/04 02:19:20;;;;;;;8.95;5.55;;;16.10;99.90;;;;;;5004260;28;20196;-82
2023/08/04 02:21:48;;;;;;;7.38;5.22;;;16.20;99.90;;;;;;4990375;28;20216;-83
2023/08/04 02:24:16;;;;;;;10.40;5.70;;;16.10;99.90;;;;;;5019053;28;20211;-82
2023/08/04 02:26:44;;;;;;;11.60;6.22;;;16.20;99.90;;;;;;4997002;28;20206;-82
2023/08/04 02:29:13;;;;;;;8.90;5.53;;;16.20;99.90;;;;;;4999606;28;20559;-82
2023/08/04 02:31:42;;;;;;;11.95;5.90;;;16.20;99.90;;;;;;5007618;28;20191;-82
2023/08/04 02:34:10;;;;;;;11.80;6.43;;;16.20;99.90;;;;;;5020008;28;20192;-83
2023/08/04 02:36:37;;;;;;;10.40;5.85;;;16.20;99.90;;;;;;4995687;28;20206;-83
2023/08/04 02:39:05;;;;;;;13.05;5.75;;;16.20;99.90;;;;;;4995318;28;20203;-83
2023/08/04 02:41:34;;;;;;;7.88;5.95;;;16.10;99.90;;;;;;4995249;28;20199;-83
2023/08/04 02:44:03;;;;;;;9.90;5.55;;;16.10;99.90;;;;;;4998804;28;20219;-82
2023/08/04 02:46:32;;;;;;;8.88;5.60;;;16.10;99.90;;;;;;5013293;28;20199;-83
2023/08/04 02:49:00;;;;;;;8.10;5.40;;;16.20;99.90;;;;;;5015059;28;20220;-83
2023/08/04 02:51:27;;;;;;;8.65;5.50;;;16.20;99.90;;;;;;5014489;28;20210;-82
2023/08/04 02:53:54;;;;;;;11.90;6.40;;;16.20;99.90;;;;;;5011705;28;20207;-82
2023/08/04 02:56:22;;;;;;;11.38;5.60;;;16.20;99.90;;;;;;4995190;28;20196;-81
2023/08/04 02:58:51;;;;;;;10.57;5.70;;;16.10;99.90;;;;;;4999395;28;20241;-82
2023/08/04 03:01:19;;;;;;;10.57;6.32;;;16.20;99.90;;;;;;4995137;28;20558;-83
2023/08/04 03:03:48;;;;;;;8.40;5.88;;;16.30;99.90;;;;;;4995420;28;20195;-83
2023/08/04 03:06:15;;;;;;;11.20;6.60;;;16.20;99.90;;;;;;5011441;28;20199;-83
2023/08/04 03:08:42;;;;;;;13.27;5.78;;;16.20;99.90;;;;;;4988053;28;20310;-83
2023/08/04 03:11:11;;;;;;;13.35;6.45;;;16.20;99.90;;;;;;5007385;28;20231;-82
2023/08/04 03:13:38;;;;;;;9.27;5.78;;;16.20;99.90;;;;;;4995397;28;20207;-82
2023/08/04 03:16:06;;;;;;;8.65;6.50;;;16.00;99.90;;;;;;5026244;28;20200;-83
2023/08/04 03:18:34;;;;;;;11.00;6.95;;;16.00;99.90;;;;;;4982624;28;20235;-83
2023/08/04 03:21:03;;;;;;;11.00;6.70;;;15.90;99.90;;;;;;5017585;28;20211;-83
2023/08/04 03:23:31;;;;;;;11.73;7.22;;;15.90;99.90;;;;;;4994489;28;20289;-83
2023/08/04 03:25:58;;;;;;;11.27;6.65;;;16.00;99.90;;;;;;5001869;28;20215;-81
2023/08/04 03:28:26;;;;;;;9.02;6.22;;;16.10;99.90;;;;;;5015001;28;20216;-83
2023/08/04 03:30:53;;;;;;;11.77;6.50;;;16.10;99.90;;;;;;5014722;28;20207;-82
2023/08/04 03:33:20;;;;;;;10.18;6.60;;;16.10;99.90;;;;;;5018968;28;20195;-83
2023/08/04 03:35:48;;;;;;;15.73;6.70;;;16.00;99.90;;;;;;4986297;28;20407;-83
2023/08/04 03:38:17;;;;;;;15.30;7.45;;;15.90;99.90;;;;;;4999086;28;20230;-83
2023/08/04 03:40:44;;;;;;;12.25;6.93;;;15.80;99.90;;;;;;5000411;28;20200;-83
2023/08/04 03:43:12;;;;;;;9.90;6.65;;;15.80;99.90;;;;;;4999323;28;20203;-83
2023/08/04 03:45:39;;;;;;;13.05;7.15;;;15.80;99.90;;;;;;4996422;28;20220;-83
2023/08/04 03:48:06;;;;;;;14.70;7.93;;;15.90;99.90;;;;;;4996840;28;20584;-83
2023/08/04 03:50:34;;;;;;;10.70;7.25;;;15.90;99.90;;;;;;4995240;28;20203;-82
2023/08/04 03:53:02;;;;;;;12.05;7.88;;;15.80;99.90;;;;;;5028040;28;20203;-82
2023/08/04 03:55:30;;;;;;;12.45;7.38;;;15.80;99.90;;;;;;4998196;28;20196;-83
2023/08/04 03:57:58;;;;;;;11.13;7.15;;;15.80;99.90;;;;;;4997074;28;20705;-82
2023/08/04 04:00:25;;;;;;;11.68;7.05;;;15.90;99.90;;;;;;5015275;28;20215;-83
2023/08/04 04:02:53;;;;;;;11.77;8.05;;;15.90;99.90;;;;;;4998607;28;20207;-82
2023/08/04 04:05:20;;;;;;;15.25;7.78;;;15.80;99.90;;;;;;4992874;28;20215;-82
2023/08/04 04:07:48;;;;;;;11.75;7.72;;;15.80;99.90;;;;;;4999094;28;20580;-83
2023/08/04 04:10:15;;;;;;;13.38;7.30;;;15.90;99.90;;;;;;4989707;28;20681;-82
2023/08/04 04:12:44;;;;;;;11.73;7.63;;;15.90;99.90;;;;;;5010653;28;20661;-82
2023/08/04 04:15:12;;;;;;;9.82;7.00;;;15.90;99.90;;;;;;5017519;28;20199;-82
2023/08/04 04:17:39;;;;;;;12.00;7.88;;;15.90;99.90;;;;;;5011419;28;20224;-82
2023/08/04 04:20:08;;;;;;;14.73;7.70;;;15.80;99.90;;;;;;5008024;28;20203;-82
2023/08/04 04:22:35;;;;;;;15.07;7.72;;;15.80;99.90;;;;;;5008002;28;20202;-83
2023/08/04 04:25:03;;;;;;;12.20;7.68;;;15.80;99.90;;;;;;5015520;28;20218;-82
2023/08/04 04:27:31;;;;;;;13.48;8.63;;;15.80;99.90;;;;;;4996875;28;20226;-82
2023/08/04 04:29:59;;;;;;;12.27;7.30;;;15.70;99.90;;;;;;5036476;28;20203;-82
2023/08/04 04:32:27;;;;;;;12.48;8.05;;;15.90;99.90;;;;;;5009365;28;20207;-82
2023/08/04 04:34:54;;;;;;;14.02;7.65;;;15.90;99.90;;;;;;4997406;28;20188;-82
2023/08/04 04:37:22;;;;;;;14.20;8.23;;;16.00;99.90;;;;;;4997712;28;20212;-82
2023/08/04 04:39:49;;;;;;;11.38;7.78;;;15.90;99.90;;;;;;4996685;28;20204;-83
2023/08/04 04:42:17;;;;;;;12.13;7.40;;;15.90;99.90;;;;;;4996943;28;20203;-82
2023/08/04 04:44:45;;;;;;;11.65;7.85;;;15.90;99.90;;;;;;5001831;28;20689;-81
2023/08/04 04:47:14;;;;;;;12.02;7.45;;;15.80;99.90;;;;;;4996489;28;20228;-82
2023/08/04 04:49:42;;;;;;;14.68;7.93;;;16.00;99.90;;;;;;5014051;28;20549;-82
2023/08/04 04:52:15;;;;;;;17.60;8.40;;;16.00;99.90;;;;;;5030410;28;20215;-82
2023/08/04 04:54:43;;;;;;;11.35;7.43;;;16.00;99.90;;;;;;4990330;28;20200;-82
2023/08/04 04:57:10;;;;;;;14.30;7.68;;;16.00;99.90;;;;;;4996899;28;20235;-82
2023/08/04 04:59:37;;;;;;;15.90;8.13;;;15.90;99.90;;;;;;4996218;28;20200;-82
2023/08/04 05:02:05;;;;;;;12.50;8.00;;;15.80;99.90;;;;;;4997292;28;20200;-81
2023/08/04 05:04:34;;;;;;;17.65;8.23;;;15.80;99.90;;;;;;4994105;28;20319;-81
2023/08/04 05:07:02;;;;;;;16.63;8.07;;;15.80;99.90;;;;;;5015336;28;20589;-82
2023/08/04 05:09:29;;;;;;;12.73;7.93;;;15.80;99.90;;;;;;4997533;28;20203;-82
2023/08/04 05:11:56;;;;;;;13.32;8.93;;;15.80;99.90;;;;;;4995551;28;20223;-81
2023/08/04 05:14:24;;;;;;;16.05;8.45;;;15.90;99.90;;;;;;5000186;28;20196;-82
2023/08/04 05:16:51;;;;;;;15.63;8.55;;;15.80;99.90;;;;;;4994971;28;20200;-82
2023/08/04 05:19:19;;;;;;;18.13;8.90;;;15.80;99.90;;;;;;4988836;28;20203;-81
2023/08/04 05:21:47;;;;;;;13.50;8.40;;;15.80;99.90;;;;;;5007464;28;20196;-82
2023/08/04 05:24:15;;;;;;;14.70;8.75;;;15.90;99.90;;;;;;5015030;28;20199;-82
2023/08/04 05:26:42;;;;;;;18.08;9.35;;;15.90;99.90;;;;;;5011727;28;20235;-82
2023/08/04 05:29:14;;;;;;;14.75;8.20;;;16.00;99.90;;;;;;5004008;28;20218;-81
2023/08/04 05:31:41;;;;;;;15.13;8.05;;;15.90;99.90;;;;;;4993667;28;20199;-83
2023/08/04 05:34:09;;;;;;;15.73;9.15;;;15.90;99.90;;;;;;4997704;28;20270;-83
2023/08/04 05:36:36;;;;;;;16.02;8.85;;;15.90;99.90;;;;;;4998300;28;20195;-83
2023/08/04 05:39:07;;;;;;;12.60;7.82;;;15.80;99.90;;;;;;4997047;28;20200;-84
2023/08/04 05:45:22;;;;;;;15.45;8.77;;;15.90;99.90;;;;;;5015737;28;20209;-85
2023/08/04 05:47:50;;;;;;;16.08;8.18;;;15.90;99.90;;;;;;5000142;28;20227;-86
2023/08/04 05:50:35;;;;;;;14.00;8.85;;;15.90;99.90;;;;;;4996357;28;20204;-82
2023/08/04 05:53:10;;;;;;;14.82;9.45;;;16.00;99.90;;;;;;4990291;28;20211;-84
2023/08/04 05:55:39;;;;;;;19.38;9.93;;;16.00;99.90;;;;;;4994398;28;20201;-81
2023/08/04 05:58:08;;;;;;;14.98;9.23;;;16.00;99.90;;;;;;5002914;28;20227;-84
2023/08/04 06:00:39;;;;;;;19.20;9.70;;;16.10;99.90;;;;;;5001395;28;20210;-83
2023/08/04 06:03:27;;;;;;;14.10;9.13;;;16.20;99.90;;;;;;5004605;28;20222;-85
2023/08/04 06:05:54;;;;;;;13.75;8.35;;;16.20;99.90;;;;;;4985978;28;20219;-84
2023/08/04 06:09:00;;;;;;;16.63;9.18;;;16.10;99.90;;;;;;5002600;28;20222;-84
2023/08/04 06:11:29;;;;;;;19.20;9.00;;;16.20;99.90;;;;;;5000931;28;20209;-83
2023/08/04 06:13:57;;;;;;;13.95;8.10;;;16.30;99.90;;;;;;5006178;28;20203;-84
2023/08/04 06:16:24;;;;;;;19.10;7.78;;;16.80;99.90;;;;;;4993084;28;20203;-83
2023/08/04 06:18:51;;;;;;;13.00;6.50;;;17.20;99.90;;;;;;5002497;28;20234;-81
2023/08/04 06:21:19;;;;;;;17.77;8.85;;;17.30;99.90;;;;;;5022341;28;20207;-83
2023/08/04 06:23:46;;;;;;;13.10;7.75;;;17.30;99.90;;;;;;5022552;28;20206;-83
2023/08/04 06:26:14;;;;;;;14.82;8.65;;;17.00;99.90;;;;;;5003531;28;20232;-83
2023/08/04 06:28:43;;;;;;;18.25;8.75;;;17.00;99.90;;;;;;4996063;28;20232;-83
2023/08/04 06:31:10;;;;;;;15.02;7.63;;;16.90;99.90;;;;;;5018987;28;20218;-84
2023/08/04 06:33:38;;;;;;;14.73;8.65;;;16.90;99.90;;;;;;4997288;28;20218;-83
2023/08/04 06:36:06;;;;;;;12.98;9.55;;;16.80;99.90;;;;;;4995595;28;20204;-83
2023/08/04 06:38:33;;;;;;;14.57;9.45;;;16.80;99.90;;;;;;5016351;28;20227;-83
2023/08/04 06:41:00;;;;;;;15.07;9.40;;;16.70;99.90;;;;;;5000098;28;20204;-83
2023/08/04 06:43:28;;;;;;;18.50;11.27;;;16.70;99.90;;;;;;4998046;28;20578;-84
2023/08/04 06:45:57;;;;;;;18.00;11.27;;;16.70;99.90;;;;;;5001958;28;20215;-84
2023/08/04 06:48:26;;;;;;;18.50;11.77;;;16.60;99.90;;;;;;4997856;28;20697;-83
2023/08/04 06:50:53;;;;;;;17.45;11.65;;;16.50;99.90;;;;;;5000429;28;20206;-83
2023/08/04 06:53:21;;;;;;;16.15;11.20;;;16.70;99.90;;;;;;4998452;28;21090;-84
2023/08/04 06:55:48;;;;;;;14.65;10.32;;;16.90;99.90;;;;;;5000903;28;20311;-83
2023/08/04 06:58:16;;;;;;;13.43;9.63;;;17.00;99.90;;;;;;4997666;28;20223;-84
2023/08/04 07:00:45;;;;;;;14.65;9.05;;;17.10;99.90;;;;;;5031353;28;20210;-84
2023/08/04 07:03:14;;;;;;;15.25;9.57;;;17.20;99.90;;;;;;5001388;28;20204;-83
2023/08/04 07:05:41;;;;;;;14.02;8.93;;;17.20;99.90;;;;;;4999029;28;20208;-83
2023/08/04 07:08:09;;;;;;;17.05;9.23;;;17.20;99.90;;;;;;5002489;28;20222;-84
2023/08/04 07:10:36;;;;;;;12.52;8.15;;;17.30;99.90;;;;;;5016804;28;20202;-83
2023/08/04 07:13:04;;;;;;;13.55;7.95;;;17.40;99.90;;;;;;5012731;28;20688;-83
2023/08/04 07:15:32;;;;;;;9.90;7.35;;;17.30;99.90;;;;;;5026418;28;20200;-83
2023/08/04 07:18:00;;;;;;;9.38;6.88;;;17.20;99.90;;;;;;4994342;28;20220;-84
2023/08/04 07:20:31;;;;;;;12.40;7.10;;;17.30;99.90;;;;;;5023593;28;20195;-84
2023/08/04 07:22:58;;;;;;;12.70;7.53;;;17.40;99.90;;;;;;5003024;28;20202;-81
2023/08/04 07:25:26;;;;;;;9.38;6.63;;;17.40;99.90;;;;;;5015010;28;20202;-84
2023/08/04 07:27:53;;;;;;;10.43;6.57;;;17.40;99.90;;;;;;5035435;28;20723;-83
2023/08/04 07:30:21;;;;;;;15.68;6.45;;;17.40;99.90;;;;;;5022079;28;20214;-83
2023/08/04 07:32:48;;;;;;;11.93;6.57;;;17.60;99.90;;;;;;5004932;28;20207;-82
2023/08/04 07:35:15;;;;;;;8.93;6.10;;;17.70;99.90;;;;;;4999083;28;20206;-82
2023/08/04 07:37:45;;;;;;;11.63;5.70;;;17.60;99.90;;;;;;5003336;28;20239;-83
2023/08/04 07:40:13;;;;;;;8.63;5.93;;;17.50;99.90;;;;;;5000937;28;20199;-83
2023/08/04 07:42:40;;;;;;;11.48;6.28;;;17.60;99.90;;;;;;5007435;28;20538;-83
2023/08/04 07:45:09;;;;;;;11.90;7.00;;;17.40;99.90;;;;;;4998362;28;20207;-82
2023/08/04 07:47:37;;;;;;;13.00;7.78;;;17.40;99.90;;;;;;5001542;28;20595;-82
2023/08/04 07:50:04;;;;;;;12.45;8.93;;;17.40;99.90;;;;;;5002681;28;20203;-79
2023/08/04 07:52:32;;;;;;;12.05;7.93;;;17.40;99.90;;;;;;5005789;28;20211;-82
2023/08/04 07:55:01;;;;;;;12.57;7.60;;;17.30;99.90;;;;;;5004456;28;20556;-84
2023/08/04 07:57:28;;;;;;;11.13;8.30;;;17.30;99.90;;;;;;5003047;28;20219;-83
2023/08/04 07:59:56;;;;;;;11.02;7.63;;;17.50;99.90;;;;;;5016884;28;20203;-82
2023/08/04 08:02:23;;;;;;;12.00;8.52;;;17.50;99.90;;;;;;5012504;28;20198;-83
2023/08/04 08:04:51;;;;;;;12.73;7.78;;;17.50;99.90;;;;;;5001005;28;20673;-84
2023/08/04 08:07:19;;;;;;;9.73;6.75;;;17.40;99.90;;;;;;4999000;28;20266;-82
2023/08/04 08:09:47;;;;;;;11.77;7.43;;;17.40;99.90;;;;;;4994444;28;20200;-81
2023/08/04 08:12:15;;;;;;;14.00;7.35;;;17.50;99.90;;;;;;5006250;28;20223;-81
2023/08/04 08:14:43;;;;;;;11.85;7.55;;;17.60;99.90;;;;;;5000163;28;20203;-81
2023/08/04 08:17:10;;;;;;;10.98;6.65;;;17.60;99.90;;;;;;5008664;28;20226;-81
2023/08/04 08:19:38;;;;;;;9.23;6.68;;;17.60;99.90;;;;;;5025379;28;20212;-82
2023/08/04 08:22:05;;;;;;;10.15;7.97;;;17.60;99.90;;;;;;5029656;28;20649;-82
2023/08/04 08:24:33;;;;;;;9.63;7.38;;;17.70;99.90;;;;;;5011731;28;20216;-80
2023/08/04 08:27:00;;;;;;;8.75;6.90;;;17.80;99.90;;;;;;5014533;28;20231;-80
2023/08/04 08:29:29;;;;;;;9.15;6.88;;;18.00;99.90;;;;;;5009569;28;20220;-80
2023/08/04 08:31:56;;;;;;;9.75;6.90;;;18.00;99.90;;;;;;4996799;28;20222;-80
2023/08/04 08:34:24;;;;;;;9.60;7.07;;;18.10;99.90;;;;;;4993958;28;20204;-81
2023/08/04 08:36:51;;;;;;;9.32;6.75;;;18.00;99.90;;;;;;4989916;28;20199;-81
2023/08/04 08:39:20;;;;;;;11.10;7.07;;;18.10;99.90;;;;;;5016175;28;20195;-80
2023/08/04 08:41:48;;;;;;;9.50;7.78;;;18.10;99.90;;;;;;4997917;28;20207;-81
2023/08/04 08:44:15;;;;;;;10.45;7.43;;;18.00;99.90;;;;;;4996214;28;20208;-81
2023/08/04 08:46:44;;;;;;;9.43;6.40;;;18.00;99.90;;;;;;5028572;28;20211;-81
2023/08/04 08:49:12;;;;;;;9.57;6.32;;;18.10;99.90;;;;;;5006158;28;20222;-80
2023/08/04 08:51:47;;;;;;;10.23;6.10;;;18.20;99.90;;;;;;5018006;28;20561;-81
2023/08/04 08:54:16;;;;;;;7.25;5.53;;;18.20;99.90;;;;;;5010968;28;20210;-81
2023/08/04 08:56:48;;;;;;;10.82;5.85;;;18.30;99.90;;;;;;5013180;28;20196;-80
2023/08/04 08:59:16;;;;;;;7.47;5.28;;;18.20;99.90;;;;;;5000688;28;20200;-78
2023/08/04 09:01:45;;;;;;;5.30;4.30;;;18.20;99.90;;;;;;4998890;28;20191;-80
2023/08/04 09:04:12;;;;;;;7.88;5.88;;;18.20;99.90;;;;;;4998414;28;20206;-80
2023/08/04 09:06:39;;;;;;;6.35;5.22;;;18.20;99.90;;;;;;5020762;28;20213;-81
2023/08/04 09:09:07;;;;;;;6.55;5.15;;;18.20;99.90;;;;;;5017340;28;20577;-81
2023/08/04 09:11:35;;;;;;;6.95;5.05;;;18.30;99.90;;;;;;5006994;28;20211;-81
2023/08/04 09:14:02;;;;;;;7.05;4.32;;;18.40;99.90;;;;;;5033460;28;20200;-80
2023/08/04 09:16:34;;;;;;;7.35;4.30;;;18.40;99.90;;;;;;5035410;28;20203;-81
2023/08/04 09:19:04;;;;;;;5.45;3.67;;;18.50;99.90;;;;;;5031085;28;20227;-81
2023/08/04 09:21:32;;;;;;;7.38;4.00;;;18.50;99.90;;;;;;4997501;28;20215;-80
2023/08/04 09:24:01;;;;;;;5.90;3.70;;;18.70;99.90;;;;;;5002416;28;20208;-81
2023/08/04 09:26:41;;;;;;;5.65;3.35;;;18.80;99.90;;;;;;5024943;28;20198;-81
2023/08/04 09:29:09;;;;;;;5.13;3.47;;;18.80;99.90;;;;;;5008155;28;20207;-81
2023/08/04 09:31:37;;;;;;;6.50;4.07;;;18.80;99.90;;;;;;5016530;28;20199;-81
2023/08/04 09:34:07;;;;;;;9.65;3.58;;;18.80;99.90;;;;;;5015261;28;20208;-81
2023/08/04 09:36:39;;;;;;;5.63;2.80;;;18.70;99.90;;;;;;4999808;28;20214;-81
2023/08/04 09:39:06;;;;;;;4.43;3.08;;;18.60;99.90;;;;;;4998095;28;20219;-81
2023/08/04 09:41:34;;;;;;;4.38;2.60;;;18.60;99.90;;;;;;4985400;28;20201;-81
2023/08/04 09:44:06;;;;;;;4.38;2.25;;;18.70;99.90;;;;;;4995583;28;20203;-81
2023/08/04 09:46:39;;;;;;;2.83;2.38;;;18.70;99.90;;;;;;5023854;28;20195;-81
2023/08/04 09:49:09;;;;;;;5.38;2.20;;;18.70;99.90;;;;;;5029884;28;20219;-81
2023/08/04 09:51:41;;;;;;;4.68;2.75;;;18.80;99.90;;;;;;4999529;28;20202;-81
2023/08/04 09:54:09;;;;;;;4.45;2.83;;;18.90;99.90;;;;;;5007086;28;20204;-80
2023/08/04 09:56:36;;;;;;;4.05;2.50;;;19.00;99.90;;;;;;4997595;28;20195;-80
2023/08/04 09:59:06;;;;;;;3.53;2.65;;;19.20;99.90;;;;;;5038446;28;20681;-80
2023/08/04 10:01:34;;;;;;;4.15;2.30;;;19.10;99.90;;;;;;4994530;28;20191;-81
2023/08/04 10:04:02;;;;;;;4.63;2.65;;;19.20;99.90;;;;;;5004610;28;20207;-81
2023/08/04 10:06:38;;;;;;;4.90;2.40;;;19.20;99.90;;;;;;5009195;28;20203;-80
2023/08/04 10:09:06;;;;;;;4.55;2.33;;;19.00;99.90;;;;;;5011927;28;20222;-80
2023/08/04 10:11:34;;;;;;;3.35;2.58;;;19.00;99.90;;;;;;4994283;28;21187;-84
2023/08/04 10:14:04;;;;;;;3.08;2.25;;;19.00;99.90;;;;;;5045754;28;20194;-83
2023/08/04 10:16:36;;;;;;;2.85;2.47;;;19.30;99.90;;;;;;5000707;28;20208;-81
2023/08/04 10:19:06;;;;;;;3.40;2.03;;;19.30;99.90;;;;;;4995029;28;20227;-80
2023/08/04 10:21:38;;;;;;;3.25;2.10;;;19.50;99.90;;;;;;5017615;28;20206;-80
2023/08/04 10:24:08;;;;;;;4.40;1.90;;;19.50;99.90;;;;;;4993889;28;20208;-79
2023/08/04 10:26:45;;;;;;;4.07;1.98;;;19.50;99.90;;;;;;5024459;28;20203;-79
2023/08/04 10:29:13;;;;;;;2.50;2.30;;;19.50;99.90;;;;;;5002907;28;20216;-79
2023/08/04 10:31:51;;;;;;;2.13;1.83;;;19.50;99.90;;;;;;5029005;28;20204;-80
2023/08/04 10:34:22;;;;;;;2.88;1.98;;;19.70;99.90;;;;;;5009003;28;20206;-79
2023/08/04 10:37:04;;;;;;;2.90;2.28;;;19.70;99.90;;;;;;5005398;28;20192;-79
2023/08/04 10:39:33;;;;;;;4.65;2.22;;;19.70;99.90;;;;;;4997276;28;20198;-80
2023/08/04 10:42:04;;;;;;;3.42;1.85;;;19.70;99.90;;;;;;4988602;28;20208;-81
2023/08/04 10:44:47;;;;;;;2.88;1.80;;;19.70;99.90;;;;;;5001924;28;20206;-80
2023/08/04 10:47:14;;;;;;;2.38;2.00;;;20.00;99.90;;;;;;5023472;28;20210;-81
2023/08/04 10:49:42;;;;;;;2.85;1.85;;;20.10;99.90;;;;;;5002070;28;20223;-81
2023/08/04 10:52:11;;;;;;;3.67;1.98;;;20.00;99.90;;;;;;5015721;28;20207;-82
2023/08/04 10:54:39;;;;;;;2.53;2.10;;;19.90;99.90;;;;;;5002830;28;20567;-81
2023/08/04 10:57:07;;;;;;;2.28;1.70;;;20.00;99.90;;;;;;4995996;28;20219;-80
2023/08/04 10:59:34;;;;;;;2.53;1.63;;;19.90;99.90;;;;;;4998365;28;20196;-81
2023/08/04 11:02:02;;;;;;;2.00;1.48;;;19.90;99.90;;;;;;5004384;28;20203;-81
2023/08/04 11:04:29;;;;;;;2.30;2.00;;;20.00;99.90;;;;;;5011258;28;20207;-80
2023/08/04 11:06:59;;;;;;;2.28;1.58;;;20.00;99.90;;;;;;5036991;28;20203;-82
2023/08/04 11:09:27;;;;;;;2.13;1.95;;;20.10;99.90;;;;;;5011043;28;20231;-81
2023/08/04 11:11:55;;;;;;;3.47;1.83;;;20.20;99.90;;;;;;4999820;28;20215;-79
2023/08/04 11:14:23;;;;;;;3.17;1.60;;;20.10;99.90;;;;;;5001684;28;20266;-81
2023/08/04 11:16:50;;;;;;;2.75;1.17;;;20.10;99.90;;;;;;5001903;28;20212;-80
2023/08/04 11:19:21;;;;;;;1.38;1.23;;;20.20;99.90;;;;;;5005652;28;20195;-80
2023/08/04 11:22:07;;;;;;;2.08;1.42;;;20.40;99.90;;;;;;5005019;28;20199;-81
2023/08/04 11:24:36;;;;;;;1.90;1.02;;;20.60;99.90;;;;;;4995913;28;20502;-81
2023/08/04 11:27:05;;;;;;;2.25;1.17;;;20.40;99.90;;;;;;5003090;28;20222;-81
2023/08/04 11:29:32;;;;;;;2.55;1.30;;;20.50;99.90;;;;;;5028664;28;20219;-82
2023/08/04 11:32:00;;;;;;;2.00;1.48;;;20.40;99.90;;;;;;5013749;28;20222;-81
2023/08/04 11:34:28;;;;;;;2.35;1.30;;;20.30;99.90;;;;;;5029208;28;20215;-81
2023/08/04 11:36:55;;;;;;;1.83;1.35;;;20.40;99.90;;;;;;5017411;28;20665;-82
2023/08/04 11:39:23;;;;;;;1.67;1.58;;;20.80;99.90;;;;;;5001049;28;20714;-81
2023/08/04 11:41:55;;;;;;;2.33;1.45;;;20.60;99.90;;;;;;5001331;28;20199;-81
2023/08/04 11:44:23;;;;;;;2.75;1.27;;;20.40;99.90;;;;;;5023673;28;20211;-82
2023/08/04 11:46:51;;;;;;;3.85;1.50;;;20.10;99.90;;;;;;5000616;28;20215;-81
2023/08/04 11:49:18;;;;;;;1.95;1.40;;;20.10;99.90;;;;;;5022214;28;20676;-81
2023/08/04 11:51:46;;;;;;;3.55;1.60;;;20.10;99.90;;;;;;5004903;28;20599;-79
2023/08/04 11:54:21;;;;;;;2.25;1.27;;;20.30;99.90;;;;;;5008357;28;20199;-82
2023/08/04 11:56:55;;;;;;;3.08;1.50;;;20.20;99.90;;;;;;5017163;28;20233;-78
2023/08/04 11:59:23;;;;;;;2.17;1.23;;;20.20;99.90;;;;;;4997337;28;20195;-82
2023/08/04 12:01:51;;;;;;;2.78;1.50;;;20.50;99.90;;;;;;4990065;28;20663;-79
2023/08/04 12:04:23;;;;;;;3.13;1.60;;;20.90;99.90;;;;;;5011328;28;20196;-81
2023/08/04 12:06:58;;;;;;;2.00;1.50;;;21.20;99.90;;;;;;5009342;28;20266;-81
2023/08/04 12:09:26;;;;;;;1.42;1.30;;;21.10;99.90;;;;;;5034445;28;20213;-80
2023/08/04 12:11:55;;;;;;;2.17;1.50;;;21.50;99.90;;;;;;5003045;28;20207;-81
2023/08/04 12:14:23;;;;;;;1.95;1.38;;;21.60;99.90;;;;;;5000466;28;20199;-81
2023/08/04 12:16:53;;;;;;;1.52;1.38;;;21.80;99.90;;;;;;5000958;28;20199;-81
2023/08/04 12:19:21;;;;;;;1.70;1.40;;;22.00;99.90;;;;;;5017381;28;20207;-80
2023/08/04 12:21:50;;;;;;;1.50;1.40;;;21.80;99.90;;;;;;5010555;28;20210;-81
2023/08/04 12:24:18;;;;;;;2.25;1.60;;;21.90;99.90;;;;;;5000244;28;20203;-81
2023/08/04 12:26:46;;;;;;;1.63;1.23;;;22.30;99.90;;;;;;4999993;28;20200;-81
2023/08/04 12:29:14;;;;;;;3.15;1.65;;;22.60;99.90;;;;;;5001772;28;20226;-80
2023/08/04 12:31:42;;;;;;;2.30;1.70;;;22.20;99.90;;;;;;5000386;28;20207;-80
2023/08/04 12:34:10;;;;;;;3.63;1.75;;;21.80;99.90;;;;;;4988856;28;20204;-80
2023/08/04 12:36:38;;;;;;;3.33;2.10;;;21.50;99.90;;;;;;4996126;28;20200;-81
2023/08/04 12:39:08;;;;;;;2.47;1.85;;;21.40;99.90;;;;;;5024243;28;20187;-80
2023/08/04 12:41:36;;;;;;;2.05;1.85;;;21.40;99.90;;;;;;4998489;28;20211;-81
2023/08/04 12:44:03;;;;;;;3.75;1.75;;;21.20;99.90;;;;;;4996839;28;20203;-81
2023/08/04 12:46:32;;;;;;;3.53;1.92;;;20.90;99.90;;;;;;4996771;28;20211;-81
2023/08/04 12:49:00;;;;;;;4.03;1.98;;;21.10;99.90;;;;;;4995687;28;20215;-81
2023/08/04 12:51:27;;;;;;;2.25;1.85;;;21.70;99.90;;;;;;4994805;28;20203;-81